sensor_id;sensor_type;location;lat;lon;timestamp;P1;durP1;ratioP1;P2;durP2;ratioP2
55288;SDS011;41154;45.394;5.734;2023-04-05T00:01:33;1.95;;;1.20;;
55288;SDS011;41154;45.394;5.734;2023-04-05T00:03:59;2.33;;;1.50;;
55288;SDS011;41154;45.394;5.734;2023-04-05T00:06:27;4.28;;;1.60;;
55288;SDS011;41154;45.394;5.734;2023-04-05T00:08:54;2.33;;;1.70;;
55288;SDS011;41154;45.394;5.734;2023-04-05T00:11:26;2.20;;;1.70;;
55288;SDS011;41154;45.394;5.734;2023-04-05T00:13:54;3.28;;;1.50;;
55288;SDS011;41154;45.394;5.734;2023-04-05T00:16:20;1.40;;;1.25;;
55288;SDS011;41154;45.394;5.734;2023-04-05T00:18:46;6.30;;;1.92;;
55288;SDS011;41154;45.394;5.734;2023-04-05T00:21:19;2.42;;;1.40;;
55288;SDS011;41154;45.394;5.734;2023-04-05T00:23:52;4.70;;;2.30;;
55288;SDS011;41154;45.394;5.734;2023-04-05T00:26:19;3.85;;;1.75;;
55288;SDS011;41154;45.394;5.734;2023-04-05T00:28:50;3.42;;;2.20;;
55288;SDS011;41154;45.394;5.734;2023-04-05T00:31:17;3.03;;;1.70;;
55288;SDS011;41154;45.394;5.734;2023-04-05T00:33:43;3.80;;;1.95;;
55288;SDS011;41154;45.394;5.734;2023-04-05T00:36:15;4.18;;;1.83;;
55288;SDS011;41154;45.394;5.734;2023-04-05T00:38:45;3.40;;;1.95;;
55288;SDS011;41154;45.394;5.734;2023-04-05T00:41:12;2.78;;;1.30;;
55288;SDS011;41154;45.394;5.734;2023-04-05T00:43:39;5.72;;;1.98;;
55288;SDS011;41154;45.394;5.734;2023-04-05T00:46:06;1.88;;;1.48;;
55288;SDS011;41154;45.394;5.734;2023-04-05T00:48:32;3.03;;;1.52;;
55288;SDS011;41154;45.394;5.734;2023-04-05T00:50:59;2.40;;;1.15;;
55288;SDS011;41154;45.394;5.734;2023-04-05T00:53:25;4.90;;;1.73;;
55288;SDS011;41154;45.394;5.734;2023-04-05T00:55:51;5.65;;;1.73;;
55288;SDS011;41154;45.394;5.734;2023-04-05T00:58:18;5.72;;;3.40;;
55288;SDS011;41154;45.394;5.734;2023-04-05T01:00:59;9.65;;;4.00;;
55288;SDS011;41154;45.394;5.734;2023-04-05T01:03:38;7.78;;;3.00;;
55288;SDS011;41154;45.394;5.734;2023-04-05T01:08:54;3.38;;;1.35;;
55288;SDS011;41154;45.394;5.734;2023-04-05T01:11:30;3.95;;;2.00;;
55288;SDS011;41154;45.394;5.734;2023-04-05T01:14:00;2.30;;;1.60;;
55288;SDS011;41154;45.394;5.734;2023-04-05T01:16:26;2.47;;;1.40;;
55288;SDS011;41154;45.394;5.734;2023-04-05T01:18:55;2.88;;;1.42;;
55288;SDS011;41154;45.394;5.734;2023-04-05T01:31:55;2.42;;;1.73;;
55288;SDS011;41154;45.394;5.734;2023-04-05T01:37:05;2.75;;;1.92;;
55288;SDS011;41154;45.394;5.734;2023-04-05T01:39:35;3.90;;;1.85;;
55288;SDS011;41154;45.394;5.734;2023-04-05T01:42:03;1.77;;;1.20;;
55288;SDS011;41154;45.394;5.734;2023-04-05T01:44:29;1.50;;;1.13;;
55288;SDS011;41154;45.394;5.734;2023-04-05T01:46:55;3.70;;;1.20;;
55288;SDS011;41154;45.394;5.734;2023-04-05T01:49:22;4.05;;;2.17;;
55288;SDS011;41154;45.394;5.734;2023-04-05T01:51:48;6.57;;;2.33;;
55288;SDS011;41154;45.394;5.734;2023-04-05T01:54:14;4.60;;;1.52;;
55288;SDS011;41154;45.394;5.734;2023-04-05T01:56:42;6.80;;;2.08;;
55288;SDS011;41154;45.394;5.734;2023-04-05T01:59:07;3.92;;;1.98;;
55288;SDS011;41154;45.394;5.734;2023-04-05T02:01:34;1.77;;;1.30;;
55288;SDS011;41154;45.394;5.734;2023-04-05T02:03:59;1.48;;;1.20;;
55288;SDS011;41154;45.394;5.734;2023-04-05T02:06:25;5.45;;;1.65;;
55288;SDS011;41154;45.394;5.734;2023-04-05T02:08:51;4.55;;;1.17;;
55288;SDS011;41154;45.394;5.734;2023-04-05T02:11:17;2.75;;;1.58;;
55288;SDS011;41154;45.394;5.734;2023-04-05T02:13:43;3.70;;;1.52;;
55288;SDS011;41154;45.394;5.734;2023-04-05T02:16:09;1.35;;;1.02;;
55288;SDS011;41154;45.394;5.734;2023-04-05T02:18:35;3.75;;;1.75;;
55288;SDS011;41154;45.394;5.734;2023-04-05T02:21:03;2.10;;;1.38;;
55288;SDS011;41154;45.394;5.734;2023-04-05T02:23:30;3.85;;;1.73;;
55288;SDS011;41154;45.394;5.734;2023-04-05T02:25:57;2.97;;;1.73;;
55288;SDS011;41154;45.394;5.734;2023-04-05T02:28:23;4.07;;;2.30;;
55288;SDS011;41154;45.394;5.734;2023-04-05T02:30:52;4.93;;;2.20;;
55288;SDS011;41154;45.394;5.734;2023-04-05T02:33:18;3.13;;;2.13;;
55288;SDS011;41154;45.394;5.734;2023-04-05T02:35:44;1.15;;;1.02;;
55288;SDS011;41154;45.394;5.734;2023-04-05T02:38:12;2.00;;;1.60;;
55288;SDS011;41154;45.394;5.734;2023-04-05T02:40:37;3.15;;;2.00;;
55288;SDS011;41154;45.394;5.734;2023-04-05T02:43:06;4.88;;;1.60;;
55288;SDS011;41154;45.394;5.734;2023-04-05T02:45:31;2.20;;;1.17;;
55288;SDS011;41154;45.394;5.734;2023-04-05T02:47:58;1.98;;;1.38;;
55288;SDS011;41154;45.394;5.734;2023-04-05T02:50:28;2.08;;;1.42;;
55288;SDS011;41154;45.394;5.734;2023-04-05T02:52:54;2.08;;;1.60;;
55288;SDS011;41154;45.394;5.734;2023-04-05T02:55:20;2.38;;;1.63;;
55288;SDS011;41154;45.394;5.734;2023-04-05T02:57:46;2.72;;;2.00;;
55288;SDS011;41154;45.394;5.734;2023-04-05T03:00:25;2.55;;;1.95;;
55288;SDS011;41154;45.394;5.734;2023-04-05T03:02:54;2.63;;;2.08;;
55288;SDS011;41154;45.394;5.734;2023-04-05T03:05:21;3.58;;;2.42;;
55288;SDS011;41154;45.394;5.734;2023-04-05T03:07:50;3.78;;;1.73;;
55288;SDS011;41154;45.394;5.734;2023-04-05T03:10:19;4.00;;;2.08;;
55288;SDS011;41154;45.394;5.734;2023-04-05T03:12:56;3.15;;;2.05;;
55288;SDS011;41154;45.394;5.734;2023-04-05T03:15:24;1.58;;;1.17;;
55288;SDS011;41154;45.394;5.734;2023-04-05T03:17:53;7.15;;;2.42;;
55288;SDS011;41154;45.394;5.734;2023-04-05T03:20:24;2.65;;;1.77;;
55288;SDS011;41154;45.394;5.734;2023-04-05T03:22:52;3.63;;;1.95;;
55288;SDS011;41154;45.394;5.734;2023-04-05T03:25:18;11.90;;;1.80;;
55288;SDS011;41154;45.394;5.734;2023-04-05T03:27:47;1.58;;;1.20;;
55288;SDS011;41154;45.394;5.734;2023-04-05T03:30:17;8.90;;;1.65;;
55288;SDS011;41154;45.394;5.734;2023-04-05T03:32:56;2.58;;;1.85;;
55288;SDS011;41154;45.394;5.734;2023-04-05T03:35:35;1.48;;;1.27;;
55288;SDS011;41154;45.394;5.734;2023-04-05T03:38:02;3.90;;;2.22;;
55288;SDS011;41154;45.394;5.734;2023-04-05T03:40:28;1.55;;;1.25;;
55288;SDS011;41154;45.394;5.734;2023-04-05T03:42:55;1.52;;;1.33;;
55288;SDS011;41154;45.394;5.734;2023-04-05T03:45:21;1.98;;;1.42;;
55288;SDS011;41154;45.394;5.734;2023-04-05T03:47:46;1.45;;;1.15;;
55288;SDS011;41154;45.394;5.734;2023-04-05T03:50:12;1.80;;;1.35;;
55288;SDS011;41154;45.394;5.734;2023-04-05T03:52:38;2.30;;;1.98;;
55288;SDS011;41154;45.394;5.734;2023-04-05T03:55:04;1.88;;;1.65;;
55288;SDS011;41154;45.394;5.734;2023-04-05T03:57:32;2.22;;;1.45;;
55288;SDS011;41154;45.394;5.734;2023-04-05T04:00:07;2.80;;;1.92;;
55288;SDS011;41154;45.394;5.734;2023-04-05T04:02:43;4.13;;;1.95;;
55288;SDS011;41154;45.394;5.734;2023-04-05T04:05:15;3.28;;;1.73;;
55288;SDS011;41154;45.394;5.734;2023-04-05T04:07:43;1.60;;;1.45;;
55288;SDS011;41154;45.394;5.734;2023-04-05T04:10:10;2.30;;;1.60;;
55288;SDS011;41154;45.394;5.734;2023-04-05T04:12:40;3.58;;;1.98;;
55288;SDS011;41154;45.394;5.734;2023-04-05T04:15:06;1.48;;;1.38;;
55288;SDS011;41154;45.394;5.734;2023-04-05T04:17:53;2.22;;;1.52;;
55288;SDS011;41154;45.394;5.734;2023-04-05T04:20:27;1.92;;;1.27;;
55288;SDS011;41154;45.394;5.734;2023-04-05T04:23:19;3.42;;;1.80;;
55288;SDS011;41154;45.394;5.734;2023-04-05T04:26:14;2.28;;;1.40;;
55288;SDS011;41154;45.394;5.734;2023-04-05T04:29:01;3.13;;;1.75;;
55288;SDS011;41154;45.394;5.734;2023-04-05T04:31:47;2.38;;;1.67;;
55288;SDS011;41154;45.394;5.734;2023-04-05T04:34:33;3.17;;;2.08;;
55288;SDS011;41154;45.394;5.734;2023-04-05T04:37:25;3.55;;;2.30;;
55288;SDS011;41154;45.394;5.734;2023-04-05T04:40:18;3.97;;;2.22;;
55288;SDS011;41154;45.394;5.734;2023-04-05T04:43:08;2.72;;;2.10;;
55288;SDS011;41154;45.394;5.734;2023-04-05T04:46:00;3.92;;;2.40;;
55288;SDS011;41154;45.394;5.734;2023-04-05T04:48:38;2.63;;;1.73;;
55288;SDS011;41154;45.394;5.734;2023-04-05T04:51:11;4.57;;;2.15;;
55288;SDS011;41154;45.394;5.734;2023-04-05T04:53:37;4.07;;;2.80;;
55288;SDS011;41154;45.394;5.734;2023-04-05T04:56:06;4.22;;;1.92;;
55288;SDS011;41154;45.394;5.734;2023-04-05T04:58:33;4.70;;;2.22;;
55288;SDS011;41154;45.394;5.734;2023-04-05T05:01:07;2.60;;;1.75;;
55288;SDS011;41154;45.394;5.734;2023-04-05T05:03:34;3.53;;;1.98;;
55288;SDS011;41154;45.394;5.734;2023-04-05T05:06:02;2.03;;;1.60;;
55288;SDS011;41154;45.394;5.734;2023-04-05T05:08:31;4.90;;;2.15;;
55288;SDS011;41154;45.394;5.734;2023-04-05T05:10:57;3.78;;;2.28;;
55288;SDS011;41154;45.394;5.734;2023-04-05T05:13:22;8.65;;;3.40;;
55288;SDS011;41154;45.394;5.734;2023-04-05T05:15:49;6.18;;;3.40;;
55288;SDS011;41154;45.394;5.734;2023-04-05T05:18:14;2.58;;;2.35;;
55288;SDS011;41154;45.394;5.734;2023-04-05T05:20:40;3.95;;;2.33;;
55288;SDS011;41154;45.394;5.734;2023-04-05T05:23:07;7.38;;;3.05;;
55288;SDS011;41154;45.394;5.734;2023-04-05T05:25:33;4.50;;;3.13;;
55288;SDS011;41154;45.394;5.734;2023-04-05T05:27:58;4.53;;;2.80;;
55288;SDS011;41154;45.394;5.734;2023-04-05T05:30:26;4.47;;;2.78;;
55288;SDS011;41154;45.394;5.734;2023-04-05T05:32:52;5.38;;;2.58;;
55288;SDS011;41154;45.394;5.734;2023-04-05T05:35:18;8.80;;;3.88;;
55288;SDS011;41154;45.394;5.734;2023-04-05T05:37:44;5.53;;;2.42;;
55288;SDS011;41154;45.394;5.734;2023-04-05T05:40:09;3.47;;;2.20;;
55288;SDS011;41154;45.394;5.734;2023-04-05T05:42:40;5.53;;;3.30;;
55288;SDS011;41154;45.394;5.734;2023-04-05T05:45:06;5.35;;;3.45;;
55288;SDS011;41154;45.394;5.734;2023-04-05T05:47:32;5.75;;;2.72;;
55288;SDS011;41154;45.394;5.734;2023-04-05T05:49:58;4.72;;;2.42;;
55288;SDS011;41154;45.394;5.734;2023-04-05T05:52:23;3.35;;;2.80;;
55288;SDS011;41154;45.394;5.734;2023-04-05T05:54:49;6.35;;;3.15;;
55288;SDS011;41154;45.394;5.734;2023-04-05T05:57:15;5.75;;;3.53;;
55288;SDS011;41154;45.394;5.734;2023-04-05T05:59:41;5.07;;;3.53;;
55288;SDS011;41154;45.394;5.734;2023-04-05T06:02:07;11.02;;;4.80;;
55288;SDS011;41154;45.394;5.734;2023-04-05T06:04:32;9.82;;;5.15;;
55288;SDS011;41154;45.394;5.734;2023-04-05T06:06:59;10.52;;;4.07;;
55288;SDS011;41154;45.394;5.734;2023-04-05T06:09:26;6.97;;;3.65;;
55288;SDS011;41154;45.394;5.734;2023-04-05T06:11:53;4.43;;;3.55;;
55288;SDS011;41154;45.394;5.734;2023-04-05T06:14:19;5.60;;;2.83;;
55288;SDS011;41154;45.394;5.734;2023-04-05T06:16:44;5.22;;;2.45;;
55288;SDS011;41154;45.394;5.734;2023-04-05T06:19:10;5.28;;;2.88;;
55288;SDS011;41154;45.394;5.734;2023-04-05T06:21:36;10.02;;;3.95;;
55288;SDS011;41154;45.394;5.734;2023-04-05T06:24:02;8.63;;;4.18;;
55288;SDS011;41154;45.394;5.734;2023-04-05T06:26:28;10.50;;;5.38;;
55288;SDS011;41154;45.394;5.734;2023-04-05T06:28:55;9.18;;;4.63;;
55288;SDS011;41154;45.394;5.734;2023-04-05T06:31:30;11.07;;;5.07;;
55288;SDS011;41154;45.394;5.734;2023-04-05T06:33:57;7.28;;;4.13;;
55288;SDS011;41154;45.394;5.734;2023-04-05T06:36:22;8.60;;;4.18;;
55288;SDS011;41154;45.394;5.734;2023-04-05T06:38:49;7.10;;;4.40;;
55288;SDS011;41154;45.394;5.734;2023-04-05T06:41:15;5.75;;;3.33;;
55288;SDS011;41154;45.394;5.734;2023-04-05T06:43:41;4.13;;;2.95;;
55288;SDS011;41154;45.394;5.734;2023-04-05T06:46:07;5.40;;;3.78;;
55288;SDS011;41154;45.394;5.734;2023-04-05T06:48:35;6.53;;;3.92;;
55288;SDS011;41154;45.394;5.734;2023-04-05T06:51:01;4.95;;;3.28;;
55288;SDS011;41154;45.394;5.734;2023-04-05T06:53:28;5.43;;;3.13;;
55288;SDS011;41154;45.394;5.734;2023-04-05T06:55:54;4.57;;;3.15;;
55288;SDS011;41154;45.394;5.734;2023-04-05T06:58:21;3.50;;;2.55;;
55288;SDS011;41154;45.394;5.734;2023-04-05T07:00:48;5.30;;;3.67;;
55288;SDS011;41154;45.394;5.734;2023-04-05T07:03:14;7.25;;;3.88;;
55288;SDS011;41154;45.394;5.734;2023-04-05T07:05:40;5.95;;;3.75;;
55288;SDS011;41154;45.394;5.734;2023-04-05T07:08:18;7.28;;;3.67;;
55288;SDS011;41154;45.394;5.734;2023-04-05T07:10:45;6.20;;;3.63;;
55288;SDS011;41154;45.394;5.734;2023-04-05T07:13:11;5.47;;;3.90;;
55288;SDS011;41154;45.394;5.734;2023-04-05T07:15:37;6.10;;;3.15;;
55288;SDS011;41154;45.394;5.734;2023-04-05T07:18:03;4.75;;;2.95;;
55288;SDS011;41154;45.394;5.734;2023-04-05T07:20:29;5.13;;;3.00;;
55288;SDS011;41154;45.394;5.734;2023-04-05T07:22:55;7.57;;;4.03;;
55288;SDS011;41154;45.394;5.734;2023-04-05T07:25:22;4.85;;;3.30;;
55288;SDS011;41154;45.394;5.734;2023-04-05T07:27:48;5.95;;;3.70;;
55288;SDS011;41154;45.394;5.734;2023-04-05T07:30:14;5.20;;;3.38;;
55288;SDS011;41154;45.394;5.734;2023-04-05T07:32:40;6.18;;;3.05;;
55288;SDS011;41154;45.394;5.734;2023-04-05T07:35:06;6.07;;;3.80;;
55288;SDS011;41154;45.394;5.734;2023-04-05T07:37:33;4.70;;;3.40;;
55288;SDS011;41154;45.394;5.734;2023-04-05T07:39:59;3.55;;;2.97;;
55288;SDS011;41154;45.394;5.734;2023-04-05T07:42:25;3.30;;;2.78;;
55288;SDS011;41154;45.394;5.734;2023-04-05T07:44:52;4.80;;;3.00;;
55288;SDS011;41154;45.394;5.734;2023-04-05T07:47:18;5.32;;;3.20;;
55288;SDS011;41154;45.394;5.734;2023-04-05T07:49:44;6.38;;;3.00;;
55288;SDS011;41154;45.394;5.734;2023-04-05T07:52:10;4.78;;;2.92;;
55288;SDS011;41154;45.394;5.734;2023-04-05T07:54:35;4.93;;;3.00;;
55288;SDS011;41154;45.394;5.734;2023-04-05T07:57:08;3.75;;;3.03;;
55288;SDS011;41154;45.394;5.734;2023-04-05T07:59:34;4.38;;;3.20;;
55288;SDS011;41154;45.394;5.734;2023-04-05T08:02:01;3.85;;;3.08;;
55288;SDS011;41154;45.394;5.734;2023-04-05T08:04:27;3.88;;;2.95;;
55288;SDS011;41154;45.394;5.734;2023-04-05T08:06:53;4.13;;;2.85;;
55288;SDS011;41154;45.394;5.734;2023-04-05T08:09:19;5.00;;;3.30;;
55288;SDS011;41154;45.394;5.734;2023-04-05T08:11:45;6.57;;;3.38;;
55288;SDS011;41154;45.394;5.734;2023-04-05T08:14:10;4.53;;;3.33;;
55288;SDS011;41154;45.394;5.734;2023-04-05T08:16:37;4.13;;;3.20;;
55288;SDS011;41154;45.394;5.734;2023-04-05T08:19:03;3.78;;;3.28;;
55288;SDS011;41154;45.394;5.734;2023-04-05T08:21:28;3.33;;;2.97;;
55288;SDS011;41154;45.394;5.734;2023-04-05T08:23:54;3.83;;;3.22;;
55288;SDS011;41154;45.394;5.734;2023-04-05T08:26:20;3.67;;;3.22;;
55288;SDS011;41154;45.394;5.734;2023-04-05T08:28:46;5.57;;;3.10;;
55288;SDS011;41154;45.394;5.734;2023-04-05T08:31:12;4.15;;;3.08;;
55288;SDS011;41154;45.394;5.734;2023-04-05T08:36:56;5.70;;;3.50;;
55288;SDS011;41154;45.394;5.734;2023-04-05T08:43:17;3.63;;;2.90;;
55288;SDS011;41154;45.394;5.734;2023-04-05T08:45:50;3.90;;;3.30;;
55288;SDS011;41154;45.394;5.734;2023-04-05T08:51:36;4.07;;;3.15;;
55288;SDS011;41154;45.394;5.734;2023-04-05T08:54:05;4.63;;;3.13;;
55288;SDS011;41154;45.394;5.734;2023-04-05T08:56:31;4.30;;;3.15;;
55288;SDS011;41154;45.394;5.734;2023-04-05T08:59:05;6.15;;;2.97;;
55288;SDS011;41154;45.394;5.734;2023-04-05T09:01:33;3.85;;;3.03;;
55288;SDS011;41154;45.394;5.734;2023-04-05T09:04:06;4.72;;;3.40;;
55288;SDS011;41154;45.394;5.734;2023-04-05T09:06:36;4.20;;;3.40;;
55288;SDS011;41154;45.394;5.734;2023-04-05T09:09:04;5.45;;;3.55;;
55288;SDS011;41154;45.394;5.734;2023-04-05T09:11:32;11.18;;;3.50;;
55288;SDS011;41154;45.394;5.734;2023-04-05T09:13:58;5.93;;;3.15;;
55288;SDS011;41154;45.394;5.734;2023-04-05T09:16:26;3.22;;;2.92;;
55288;SDS011;41154;45.394;5.734;2023-04-05T09:18:53;6.95;;;3.45;;
55288;SDS011;41154;45.394;5.734;2023-04-05T09:21:18;4.88;;;3.38;;
55288;SDS011;41154;45.394;5.734;2023-04-05T09:23:53;5.65;;;3.78;;
55288;SDS011;41154;45.394;5.734;2023-04-05T09:28:51;4.72;;;3.28;;
55288;SDS011;41154;45.394;5.734;2023-04-05T09:34:02;4.55;;;3.10;;
55288;SDS011;41154;45.394;5.734;2023-04-05T09:36:29;6.05;;;3.25;;
55288;SDS011;41154;45.394;5.734;2023-04-05T09:39:04;6.30;;;3.85;;
55288;SDS011;41154;45.394;5.734;2023-04-05T09:41:33;4.93;;;3.50;;
55288;SDS011;41154;45.394;5.734;2023-04-05T09:44:01;4.82;;;2.83;;
55288;SDS011;41154;45.394;5.734;2023-04-05T09:48:58;5.85;;;3.70;;
55288;SDS011;41154;45.394;5.734;2023-04-05T09:51:35;5.30;;;3.35;;
55288;SDS011;41154;45.394;5.734;2023-04-05T09:54:05;5.25;;;3.42;;
55288;SDS011;41154;45.394;5.734;2023-04-05T09:56:36;4.90;;;3.70;;
55288;SDS011;41154;45.394;5.734;2023-04-05T09:59:08;4.70;;;3.22;;
55288;SDS011;41154;45.394;5.734;2023-04-05T10:01:37;6.28;;;3.30;;
55288;SDS011;41154;45.394;5.734;2023-04-05T10:04:07;5.25;;;3.80;;
55288;SDS011;41154;45.394;5.734;2023-04-05T10:06:35;5.13;;;3.40;;
55288;SDS011;41154;45.394;5.734;2023-04-05T10:09:02;5.35;;;3.33;;
55288;SDS011;41154;45.394;5.734;2023-04-05T10:11:30;5.63;;;3.58;;
55288;SDS011;41154;45.394;5.734;2023-04-05T10:13:58;7.53;;;3.85;;
55288;SDS011;41154;45.394;5.734;2023-04-05T10:16:25;5.82;;;3.60;;
55288;SDS011;41154;45.394;5.734;2023-04-05T10:18:53;4.07;;;3.25;;
55288;SDS011;41154;45.394;5.734;2023-04-05T10:21:20;6.60;;;3.70;;
55288;SDS011;41154;45.394;5.734;2023-04-05T10:23:56;5.00;;;3.58;;
55288;SDS011;41154;45.394;5.734;2023-04-05T10:29:33;5.85;;;3.58;;
55288;SDS011;41154;45.394;5.734;2023-04-05T10:33:17;8.23;;;3.40;;
55288;SDS011;41154;45.394;5.734;2023-04-05T10:35:16;4.10;;;3.05;;
55288;SDS011;41154;45.394;5.734;2023-04-05T10:40:36;6.00;;;2.97;;
55288;SDS011;41154;45.394;5.734;2023-04-05T10:43:03;4.60;;;3.45;;
55288;SDS011;41154;45.394;5.734;2023-04-05T10:45:39;6.13;;;3.05;;
55288;SDS011;41154;45.394;5.734;2023-04-05T10:51:14;4.78;;;3.50;;
55288;SDS011;41154;45.394;5.734;2023-04-05T10:53:40;4.82;;;3.15;;
55288;SDS011;41154;45.394;5.734;2023-04-05T10:56:06;6.13;;;3.83;;
55288;SDS011;41154;45.394;5.734;2023-04-05T10:58:33;6.10;;;3.53;;
55288;SDS011;41154;45.394;5.734;2023-04-05T11:01:00;4.00;;;3.42;;
55288;SDS011;41154;45.394;5.734;2023-04-05T11:06:18;5.93;;;3.38;;
55288;SDS011;41154;45.394;5.734;2023-04-05T11:08:45;5.22;;;3.22;;
55288;SDS011;41154;45.394;5.734;2023-04-05T11:11:16;8.35;;;4.80;;
55288;SDS011;41154;45.394;5.734;2023-04-05T11:13:56;7.35;;;3.60;;
55288;SDS011;41154;45.394;5.734;2023-04-05T11:16:23;5.55;;;3.55;;
55288;SDS011;41154;45.394;5.734;2023-04-05T11:19:02;5.65;;;3.63;;
55288;SDS011;41154;45.394;5.734;2023-04-05T11:21:28;5.03;;;3.75;;
55288;SDS011;41154;45.394;5.734;2023-04-05T11:24:08;5.32;;;3.38;;
55288;SDS011;41154;45.394;5.734;2023-04-05T11:29:04;5.43;;;3.47;;
55288;SDS011;41154;45.394;5.734;2023-04-05T11:31:30;7.72;;;4.40;;
55288;SDS011;41154;45.394;5.734;2023-04-05T11:33:57;5.88;;;4.32;;
55288;SDS011;41154;45.394;5.734;2023-04-05T11:36:42;5.97;;;3.85;;
55288;SDS011;41154;45.394;5.734;2023-04-05T11:41:55;7.10;;;3.60;;
55288;SDS011;41154;45.394;5.734;2023-04-05T11:47:17;7.80;;;3.20;;
55288;SDS011;41154;45.394;5.734;2023-04-05T11:49:48;5.30;;;3.50;;
55288;SDS011;41154;45.394;5.734;2023-04-05T11:52:15;4.07;;;3.28;;
55288;SDS011;41154;45.394;5.734;2023-04-05T11:54:43;8.40;;;3.45;;
55288;SDS011;41154;45.394;5.734;2023-04-05T11:57:17;6.03;;;3.45;;
55288;SDS011;41154;45.394;5.734;2023-04-05T11:59:45;6.30;;;3.67;;
55288;SDS011;41154;45.394;5.734;2023-04-05T12:02:11;7.07;;;3.70;;
55288;SDS011;41154;45.394;5.734;2023-04-05T12:04:37;6.45;;;3.38;;
55288;SDS011;41154;45.394;5.734;2023-04-05T12:12:22;5.40;;;3.10;;
55288;SDS011;41154;45.394;5.734;2023-04-05T12:14:48;5.50;;;3.03;;
55288;SDS011;41154;45.394;5.734;2023-04-05T12:17:14;6.93;;;3.40;;
55288;SDS011;41154;45.394;5.734;2023-04-05T12:19:40;6.13;;;3.83;;
55288;SDS011;41154;45.394;5.734;2023-04-05T12:22:06;6.68;;;3.85;;
55288;SDS011;41154;45.394;5.734;2023-04-05T12:24:32;7.05;;;3.10;;
55288;SDS011;41154;45.394;5.734;2023-04-05T12:26:58;3.53;;;2.83;;
55288;SDS011;41154;45.394;5.734;2023-04-05T12:29:25;4.40;;;3.40;;
55288;SDS011;41154;45.394;5.734;2023-04-05T12:31:50;4.90;;;2.88;;
55288;SDS011;41154;45.394;5.734;2023-04-05T12:34:22;6.10;;;3.30;;
55288;SDS011;41154;45.394;5.734;2023-04-05T12:36:50;5.00;;;2.65;;
55288;SDS011;41154;45.394;5.734;2023-04-05T12:39:16;4.55;;;3.10;;
55288;SDS011;41154;45.394;5.734;2023-04-05T12:41:42;6.13;;;3.63;;
55288;SDS011;41154;45.394;5.734;2023-04-05T12:44:13;4.53;;;3.17;;
55288;SDS011;41154;45.394;5.734;2023-04-05T12:46:44;4.53;;;2.92;;
55288;SDS011;41154;45.394;5.734;2023-04-05T12:49:16;6.57;;;3.65;;
55288;SDS011;41154;45.394;5.734;2023-04-05T12:51:47;5.35;;;3.17;;
55288;SDS011;41154;45.394;5.734;2023-04-05T12:54:22;5.90;;;3.80;;
55288;SDS011;41154;45.394;5.734;2023-04-05T12:56:57;6.00;;;3.42;;
55288;SDS011;41154;45.394;5.734;2023-04-05T12:59:23;4.68;;;3.53;;
55288;SDS011;41154;45.394;5.734;2023-04-05T13:01:52;8.02;;;3.72;;
55288;SDS011;41154;45.394;5.734;2023-04-05T13:04:17;6.75;;;3.00;;
55288;SDS011;41154;45.394;5.734;2023-04-05T13:06:43;3.95;;;2.70;;
55288;SDS011;41154;45.394;5.734;2023-04-05T13:09:11;9.45;;;3.35;;
55288;SDS011;41154;45.394;5.734;2023-04-05T13:11:37;5.68;;;3.65;;
55288;SDS011;41154;45.394;5.734;2023-04-05T13:14:02;4.07;;;2.95;;
55288;SDS011;41154;45.394;5.734;2023-04-05T13:16:28;6.80;;;3.55;;
55288;SDS011;41154;45.394;5.734;2023-04-05T13:18:54;6.97;;;3.70;;
55288;SDS011;41154;45.394;5.734;2023-04-05T13:21:20;4.10;;;3.25;;
55288;SDS011;41154;45.394;5.734;2023-04-05T13:23:45;5.32;;;2.97;;
55288;SDS011;41154;45.394;5.734;2023-04-05T13:26:11;5.40;;;3.25;;
55288;SDS011;41154;45.394;5.734;2023-04-05T13:28:37;6.05;;;3.60;;
55288;SDS011;41154;45.394;5.734;2023-04-05T13:31:02;6.40;;;3.55;;
55288;SDS011;41154;45.394;5.734;2023-04-05T13:33:30;5.30;;;3.25;;
55288;SDS011;41154;45.394;5.734;2023-04-05T13:35:57;5.22;;;3.42;;
55288;SDS011;41154;45.394;5.734;2023-04-05T13:38:22;4.70;;;3.30;;
55288;SDS011;41154;45.394;5.734;2023-04-05T13:40:48;6.00;;;3.00;;
55288;SDS011;41154;45.394;5.734;2023-04-05T13:43:14;5.55;;;3.95;;
55288;SDS011;41154;45.394;5.734;2023-04-05T13:45:40;5.07;;;3.67;;
55288;SDS011;41154;45.394;5.734;2023-04-05T13:48:05;7.28;;;3.70;;
55288;SDS011;41154;45.394;5.734;2023-04-05T13:50:31;5.03;;;3.38;;
55288;SDS011;41154;45.394;5.734;2023-04-05T13:52:57;5.43;;;3.80;;
55288;SDS011;41154;45.394;5.734;2023-04-05T13:55:22;5.82;;;3.47;;
55288;SDS011;41154;45.394;5.734;2023-04-05T13:57:48;5.60;;;3.78;;
55288;SDS011;41154;45.394;5.734;2023-04-05T14:00:14;5.88;;;3.78;;
55288;SDS011;41154;45.394;5.734;2023-04-05T14:02:40;6.35;;;3.40;;
55288;SDS011;41154;45.394;5.734;2023-04-05T14:05:06;7.78;;;3.65;;
55288;SDS011;41154;45.394;5.734;2023-04-05T14:07:33;5.22;;;2.92;;
55288;SDS011;41154;45.394;5.734;2023-04-05T14:10:00;4.30;;;3.10;;
55288;SDS011;41154;45.394;5.734;2023-04-05T14:12:26;4.90;;;3.30;;
55288;SDS011;41154;45.394;5.734;2023-04-05T14:14:51;4.65;;;3.33;;
55288;SDS011;41154;45.394;5.734;2023-04-05T14:17:17;12.77;;;3.60;;
55288;SDS011;41154;45.394;5.734;2023-04-05T14:19:43;4.47;;;3.30;;
55288;SDS011;41154;45.394;5.734;2023-04-05T14:22:09;5.25;;;3.60;;
55288;SDS011;41154;45.394;5.734;2023-04-05T14:24:34;6.57;;;3.13;;
55288;SDS011;41154;45.394;5.734;2023-04-05T14:27:00;8.00;;;4.15;;
55288;SDS011;41154;45.394;5.734;2023-04-05T14:29:26;6.20;;;3.63;;
55288;SDS011;41154;45.394;5.734;2023-04-05T14:31:53;6.38;;;3.40;;
55288;SDS011;41154;45.394;5.734;2023-04-05T14:34:19;6.45;;;4.00;;
55288;SDS011;41154;45.394;5.734;2023-04-05T14:36:46;12.57;;;6.60;;
55288;SDS011;41154;45.394;5.734;2023-04-05T14:39:12;25.52;;;13.70;;
55288;SDS011;41154;45.394;5.734;2023-04-05T14:41:38;8.38;;;5.13;;
55288;SDS011;41154;45.394;5.734;2023-04-05T14:44:05;7.03;;;3.08;;
55288;SDS011;41154;45.394;5.734;2023-04-05T14:46:31;6.13;;;3.50;;
55288;SDS011;41154;45.394;5.734;2023-04-05T14:48:56;6.95;;;3.92;;
55288;SDS011;41154;45.394;5.734;2023-04-05T14:51:22;5.68;;;3.45;;
55288;SDS011;41154;45.394;5.734;2023-04-05T14:53:48;6.95;;;4.10;;
55288;SDS011;41154;45.394;5.734;2023-04-05T14:56:15;5.45;;;3.72;;
55288;SDS011;41154;45.394;5.734;2023-04-05T14:58:41;7.75;;;3.40;;
55288;SDS011;41154;45.394;5.734;2023-04-05T15:01:06;8.15;;;3.90;;
55288;SDS011;41154;45.394;5.734;2023-04-05T15:03:34;6.55;;;3.97;;
55288;SDS011;41154;45.394;5.734;2023-04-05T15:06:01;6.30;;;3.92;;
55288;SDS011;41154;45.394;5.734;2023-04-05T15:08:28;6.80;;;4.05;;
55288;SDS011;41154;45.394;5.734;2023-04-05T15:10:54;6.45;;;3.55;;
55288;SDS011;41154;45.394;5.734;2023-04-05T15:13:20;5.30;;;2.88;;
55288;SDS011;41154;45.394;5.734;2023-04-05T15:15:48;6.70;;;3.97;;
55288;SDS011;41154;45.394;5.734;2023-04-05T15:18:14;7.65;;;4.05;;
55288;SDS011;41154;45.394;5.734;2023-04-05T15:20:40;8.15;;;5.25;;
55288;SDS011;41154;45.394;5.734;2023-04-05T15:23:05;7.70;;;4.07;;
55288;SDS011;41154;45.394;5.734;2023-04-05T15:25:31;8.93;;;4.30;;
55288;SDS011;41154;45.394;5.734;2023-04-05T15:27:57;6.45;;;3.92;;
55288;SDS011;41154;45.394;5.734;2023-04-05T15:30:24;6.05;;;3.50;;
55288;SDS011;41154;45.394;5.734;2023-04-05T15:32:51;5.10;;;3.53;;
55288;SDS011;41154;45.394;5.734;2023-04-05T15:35:17;4.90;;;3.65;;
55288;SDS011;41154;45.394;5.734;2023-04-05T15:37:43;7.30;;;3.72;;
55288;SDS011;41154;45.394;5.734;2023-04-05T15:40:09;6.18;;;3.30;;
55288;SDS011;41154;45.394;5.734;2023-04-05T15:42:35;5.78;;;3.20;;
55288;SDS011;41154;45.394;5.734;2023-04-05T15:45:00;5.72;;;3.28;;
55288;SDS011;41154;45.394;5.734;2023-04-05T15:47:27;7.55;;;4.15;;
55288;SDS011;41154;45.394;5.734;2023-04-05T15:49:52;7.60;;;4.53;;
55288;SDS011;41154;45.394;5.734;2023-04-05T15:52:18;6.28;;;3.63;;
55288;SDS011;41154;45.394;5.734;2023-04-05T15:54:44;7.97;;;5.88;;